createdAt,value
2023-06-17T00:02:50.275Z,84.09
2023-06-17T00:07:52.361Z,83.97
2023-06-17T00:12:52.993Z,83.88
2023-06-17T00:17:53.692Z,83.89
2023-06-17T00:22:55.748Z,85.22
2023-06-17T00:27:56.406Z,84.86
2023-06-17T00:32:57.144Z,84.76
2023-06-17T00:37:59.262Z,85.58
2023-06-17T00:43:00.244Z,85.83
2023-06-17T00:48:01.055Z,86.81
2023-06-17T00:53:03.173Z,86.79
2023-06-17T00:58:04.196Z,86.83
2023-06-17T01:03:06.615Z,88.01
2023-06-17T01:08:21.296Z,88.46
2023-06-17T01:13:24.745Z,88.88
2023-06-17T01:18:27.076Z,89.11
2023-06-17T01:23:33.487Z,89.46
2023-06-17T01:28:38.108Z,90.26
2023-06-17T01:33:40.840Z,90.25
2023-06-17T01:38:46.252Z,90.42
2023-06-17T01:43:51.047Z,90.51
2023-06-17T01:48:54.847Z,90.03
2023-06-17T01:53:55.495Z,90.24
2023-06-17T01:58:57.629Z,90.78
2023-06-17T02:03:59.317Z,89.97
2023-06-17T02:09:00.283Z,89.92
2023-06-17T02:14:02.338Z,89.50
2023-06-17T02:19:04.314Z,89.63
2023-06-17T02:24:05.134Z,90.12
2023-06-17T02:29:07.154Z,90.16
2023-06-17T02:34:07.817Z,90.54
2023-06-17T02:39:09.230Z,90.14
2023-06-17T02:44:11.598Z,90.05
2023-06-17T02:49:14.428Z,89.66
2023-06-17T02:54:15.117Z,89.54
2023-06-17T02:59:18.038Z,89.08
2023-06-17T03:04:21.427Z,88.58
2023-06-17T03:09:22.161Z,88.97
2023-06-17T03:14:25.848Z,88.88
2023-06-17T03:19:26.920Z,88.38
2023-06-17T03:24:27.893Z,87.94
2023-06-17T03:29:31.282Z,87.43
2023-06-17T03:34:35.176Z,87.03
2023-06-17T03:39:43.439Z,86.71
2023-06-17T03:44:47.236Z,86.95
2023-06-17T03:49:48.170Z,86.42
2023-06-17T03:54:49.668Z,86.37
2023-06-17T03:59:51.744Z,85.47
2023-06-17T04:04:53.868Z,84.88
2023-06-17T04:10:06.373Z,82.89
2023-06-17T04:15:10.656Z,82.56
2023-06-17T04:20:13.325Z,82.34
2023-06-17T04:25:16.589Z,80.91
2023-06-17T04:30:22.331Z,80.94
2023-06-17T04:35:24.332Z,81.36
2023-06-17T04:40:26.336Z,80.54
2023-06-17T04:45:28.334Z,80.90
2023-06-17T04:50:33.674Z,80.01
2023-06-17T04:55:36.489Z,79.97
2023-06-17T05:00:39.669Z,79.05
2023-06-17T05:05:41.238Z,78.83
2023-06-17T05:10:42.287Z,78.37
2023-06-17T05:15:44.247Z,77.67
2023-06-17T05:20:45.219Z,76.58
2023-06-17T05:25:47.029Z,75.90
2023-06-17T05:30:49.245Z,72.32
2023-06-17T05:35:52.348Z,72.08
2023-06-17T05:40:53.090Z,72.24
2023-06-17T05:45:55.354Z,71.94
2023-06-17T05:50:56.215Z,71.87
2023-06-17T05:55:57.831Z,71.53
2023-06-17T06:00:59.891Z,71.18
2023-06-17T06:06:03.106Z,70.32
2023-06-17T06:11:05.206Z,68.61
2023-06-17T06:16:08.693Z,67.35
2023-06-17T06:21:09.365Z,65.42
2023-06-17T06:26:10.021Z,66.17
2023-06-17T06:31:12.887Z,67.39
2023-06-17T06:36:13.554Z,68.27
2023-06-17T06:41:14.306Z,67.22
2023-06-17T06:46:25.250Z,66.61
2023-06-17T06:51:26.053Z,65.27
2023-06-17T06:56:27.985Z,64.76
2023-06-17T07:01:30.436Z,65.91
2023-06-17T07:06:33.307Z,64.43
2023-06-17T07:11:37.247Z,63.73
2023-06-17T07:16:39.666Z,64.41
2023-06-17T07:21:40.452Z,63.08
2023-06-17T07:26:41.246Z,61.66
2023-06-17T07:31:43.914Z,64.21
2023-06-17T07:36:44.631Z,63.34
2023-06-17T07:41:46.796Z,61.73
2023-06-17T07:46:48.886Z,62.25
2023-06-17T07:51:49.632Z,62.73
2023-06-17T07:56:50.267Z,62.96
2023-06-17T08:01:52.364Z,62.28
2023-06-17T08:06:53.490Z,60.85
2023-06-17T08:11:54.445Z,60.61
2023-06-17T08:16:57.104Z,61.59
2023-06-17T08:21:57.832Z,61.83
2023-06-17T08:26:58.598Z,62.34
2023-06-17T08:32:00.614Z,62.52
2023-06-17T08:37:05.689Z,62.34
2023-06-17T08:42:07.531Z,61.67
2023-06-17T08:47:12.490Z,63.00
2023-06-17T08:52:14.935Z,62.30
2023-06-17T08:57:16.384Z,62.05
2023-06-17T09:02:18.480Z,63.17
2023-06-17T09:07:19.108Z,63.27
2023-06-17T09:12:19.765Z,61.91
2023-06-17T09:17:33.116Z,61.51
2023-06-17T09:22:33.992Z,61.16
2023-06-17T09:27:34.857Z,58.51
2023-06-17T09:32:41.869Z,57.88
2023-06-17T09:37:58.071Z,60.57
2023-06-17T09:43:25.018Z,62.29
2023-06-17T09:48:30.928Z,61.49
2023-06-17T09:53:31.943Z,60.00
2023-06-17T09:58:33.124Z,56.54
2023-06-17T10:03:36.227Z,56.44
2023-06-17T10:08:38.426Z,57.35
2023-06-17T10:13:42.249Z,58.07
2023-06-17T10:18:48.735Z,56.62
2023-06-17T10:23:50.955Z,53.79
2023-06-17T10:29:01.973Z,53.11
2023-06-17T10:34:04.972Z,53.78
2023-06-17T10:39:07.504Z,53.89
2023-06-17T10:44:29.454Z,49.98
2023-06-17T10:49:41.553Z,49.41
2023-06-17T10:54:46.740Z,50.74
2023-06-17T10:59:47.429Z,51.43
2023-06-17T11:04:49.687Z,50.44
2023-06-17T11:09:50.414Z,49.96
2023-06-17T11:14:51.137Z,46.06
2023-06-17T11:19:53.174Z,48.66
2023-06-17T11:24:53.959Z,47.00
2023-06-17T11:29:54.617Z,45.55
2023-06-17T11:34:57.210Z,44.37
2023-06-17T11:39:58.411Z,43.85
2023-06-17T11:44:59.535Z,43.59
2023-06-17T11:50:07.969Z,41.89
2023-06-17T11:55:15.149Z,43.30
2023-06-17T12:00:16.771Z,51.91
2023-06-17T12:05:18.850Z,56.50
2023-06-17T12:10:19.896Z,58.85
2023-06-17T12:15:36.308Z,53.30
2023-06-17T12:20:39.733Z,55.42
2023-06-17T12:25:40.427Z,60.82
2023-06-17T12:30:41.286Z,62.93
2023-06-17T12:35:43.289Z,61.72
2023-06-17T12:40:44.193Z,61.27
2023-06-17T12:45:44.860Z,60.76
2023-06-17T12:50:47.265Z,57.40
2023-06-17T12:55:48.068Z,55.38
2023-06-17T13:00:49.034Z,55.47
2023-06-17T13:05:52.560Z,53.00
2023-06-17T13:10:53.225Z,51.40
2023-06-17T13:15:54.511Z,49.13
2023-06-17T13:20:56.488Z,48.63
2023-06-17T13:25:57.178Z,48.88
2023-06-17T13:31:02.296Z,46.81
2023-06-17T13:36:04.436Z,44.42
2023-06-17T13:41:05.166Z,44.14
2023-06-17T13:46:06.044Z,43.82
2023-06-17T13:51:08.380Z,45.98
2023-06-17T13:56:09.613Z,46.74
2023-06-17T14:01:10.406Z,48.58
2023-06-17T14:06:12.594Z,49.47
2023-06-17T14:11:13.278Z,49.49
2023-06-17T14:16:14.229Z,58.22
2023-06-17T14:21:33.668Z,60.18
2023-06-17T14:26:36.075Z,61.31
2023-06-17T14:31:37.043Z,61.13
2023-06-17T14:36:39.026Z,58.19
2023-06-17T14:41:39.651Z,52.77
2023-06-17T14:46:41.500Z,50.00
2023-06-17T14:51:44.254Z,48.48
2023-06-17T14:56:46.389Z,45.18
2023-06-17T15:01:47.333Z,44.59
2023-06-17T15:06:49.428Z,45.30
2023-06-17T15:11:50.066Z,50.81
2023-06-17T15:16:51.292Z,53.37
2023-06-17T15:21:53.385Z,55.76
2023-06-17T15:26:54.249Z,61.28
2023-06-17T15:31:54.894Z,63.86
2023-06-17T15:36:56.855Z,63.64
2023-06-17T15:41:57.497Z,65.14
2023-06-17T15:47:00.380Z,65.53
2023-06-17T15:52:02.620Z,65.57
2023-06-17T15:57:05.079Z,68.44
2023-06-17T16:02:06.342Z,68.52
2023-06-17T16:07:10.444Z,69.22
2023-06-17T16:12:13.049Z,68.84
2023-06-17T16:17:13.878Z,69.47
2023-06-17T16:22:15.923Z,69.30
2023-06-17T16:27:16.759Z,73.74
2023-06-17T16:32:17.403Z,73.28
2023-06-17T16:37:19.415Z,69.68
2023-06-17T16:42:20.077Z,68.89
2023-06-17T16:47:22.620Z,67.55
2023-06-17T16:52:25.159Z,63.46
2023-06-17T16:57:25.983Z,59.85
2023-06-17T17:02:27.100Z,56.76
2023-06-17T17:07:29.308Z,52.01
2023-06-17T17:12:29.956Z,48.41
2023-06-17T17:17:30.639Z,46.44
2023-06-17T17:22:32.789Z,42.16
2023-06-17T17:27:33.575Z,40.76
2023-06-17T17:32:34.436Z,40.70
2023-06-17T17:37:37.209Z,40.46
2023-06-17T17:42:37.900Z,41.50
2023-06-17T17:47:38.636Z,41.53
2023-06-17T17:52:41.222Z,43.07
2023-06-17T17:57:41.891Z,42.83
2023-06-17T18:02:42.774Z,44.46
2023-06-17T18:07:45.553Z,46.84
2023-06-17T18:12:47.024Z,51.01
2023-06-17T18:17:47.905Z,54.73
2023-06-17T18:22:50.253Z,55.64
2023-06-17T18:27:50.934Z,58.43
2023-06-17T18:32:51.666Z,60.27
2023-06-17T18:37:53.958Z,61.54
2023-06-17T18:42:54.636Z,62.50
2023-06-17T18:47:55.724Z,63.30
2023-06-17T18:52:57.743Z,64.53
2023-06-17T18:57:58.646Z,65.29
2023-06-17T19:02:59.621Z,67.23
2023-06-17T19:08:01.710Z,68.93
2023-06-17T19:13:03.583Z,69.74
2023-06-17T19:18:04.736Z,71.87
2023-06-17T19:23:07.635Z,71.70
2023-06-17T19:28:08.286Z,73.93
2023-06-17T19:33:08.941Z,74.89
2023-06-17T19:38:11.496Z,75.87
2023-06-17T19:43:12.237Z,77.14
2023-06-17T19:48:13.012Z,78.03
2023-06-17T19:53:15.078Z,79.15
2023-06-17T19:58:15.713Z,80.13
2023-06-17T20:03:16.697Z,80.75
2023-06-17T20:08:18.842Z,81.49
2023-06-17T20:13:20.579Z,81.93
2023-06-17T20:18:21.217Z,82.32
2023-06-17T20:23:24.741Z,83.17
2023-06-17T20:28:25.460Z,83.51
2023-06-17T20:33:26.221Z,83.75
2023-06-17T20:38:29.111Z,84.33
2023-06-17T20:43:29.815Z,84.92
2023-06-17T20:48:31.283Z,85.45
2023-06-17T20:53:33.233Z,85.59
2023-06-17T20:58:33.968Z,86.15
2023-06-17T21:03:34.733Z,86.28
2023-06-17T21:08:36.800Z,86.78
2023-06-17T21:13:37.443Z,86.88
2023-06-17T21:18:38.100Z,86.99
2023-06-17T21:23:40.057Z,87.18
2023-06-17T21:28:41.022Z,87.27
2023-06-17T21:33:41.694Z,87.38
2023-06-17T21:38:43.749Z,87.62
2023-06-17T21:43:44.409Z,87.47
2023-06-17T21:48:45.091Z,86.89
2023-06-17T21:53:47.063Z,87.46
2023-06-17T21:58:47.738Z,86.77
2023-06-17T22:03:48.489Z,86.77
2023-06-17T22:08:50.625Z,86.83
2023-06-17T22:13:51.308Z,87.03
2023-06-17T22:18:52.430Z,87.17
2023-06-17T22:23:54.506Z,87.38
2023-06-17T22:28:55.175Z,87.12
2023-06-17T22:33:55.806Z,87.30
2023-06-17T22:38:57.770Z,87.54
2023-06-17T22:43:58.461Z,87.42
2023-06-17T22:48:59.568Z,87.88
2023-06-17T22:54:01.586Z,87.74
2023-06-17T22:59:02.210Z,87.62
2023-06-17T23:04:04.011Z,87.90
2023-06-17T23:09:07.701Z,87.72
2023-06-17T23:14:09.260Z,87.90
2023-06-17T23:19:10.093Z,87.97
2023-06-17T23:24:13.275Z,87.45
2023-06-17T23:29:14.216Z,87.54
2023-06-17T23:34:14.851Z,87.76
2023-06-17T23:39:17.331Z,87.48
2023-06-17T23:44:18.453Z,87.96
2023-06-17T23:49:19.099Z,88.21
2023-06-17T23:54:21.154Z,88.62
2023-06-17T23:59:21.782Z,88.37
